Terminal Aerodrome Forecast
Issued by NWS

Home | Current Version | Previous Version | Text Only | Print | Product List | Glossary On
Versions: 1 2 3 4 5 6 7 8 9 10 11 12 13 14
000
FTUS45 KRIW 010500
TAFLND
TAF
KLND 010531Z 0106/0206 VRB05KT P6SM VCSH BKN100
     FM011100 02007KT P6SM OVC020
     FM011600 05007KT P6SM VCSH BKN020
     FM020200 24007KT P6SM SCT050 BKN100=

USA.gov is the U.S. government's official web portal to all federal, state and local government web resources and services.